| time (UTC) | temp F | wind direction | speed knots | gust knots | rain 1hr in | rain 24hr in | rain mn in | humidity % | barometer mb |
| 20260503181057 | 76 | 316 | 1.7 | 6.1 | 0.00 | 0.00 | 0.00 | 56 | 1010.8 |
| 20260503180558 | 75 | 343 | 1.7 | 4.3 | 0.00 | 0.00 | 0.00 | 55 | 1010.9 |
| 20260503180057 | 75 | 69 | 0.9 | 6.1 | 0.00 | 0.00 | 0.00 | 56 | 1010.9 |
| 20260503175557 | 74 | 318 | 2.6 | 6.1 | 0.00 | 0.00 | 0.00 | 57 | 1010.9 |
| 20260503175057 | 74 | 0 | 0.9 | 7.0 | 0.00 | 0.00 | 0.00 | 57 | 1010.9 |
| 20260503174610 | 74 | 306 | 0.9 | 7.8 | 0.00 | 0.00 | 0.00 | 60 | 1011.0 |
| 20260503174057 | 73 | 336 | 1.7 | 7.8 | 0.00 | 0.00 | 0.00 | 60 | 1011.0 |
| 20260503173557 | 73 | 336 | 2.6 | 7.8 | 0.00 | 0.00 | 0.00 | 59 | 1011.0 |
| 20260503173132 | 72 | 306 | 1.7 | 7.0 | 0.00 | 0.00 | 0.00 | 62 | 1011.0 |
| 20260503172556 | 72 | 53 | 0.9 | 6.1 | 0.00 | 0.00 | 0.00 | 60 | 1011.0 |
| 20260503172100 | 71 | 352 | 2.6 | 6.1 | 0.00 | 0.00 | 0.00 | 62 | 1011.1 |
| 20260503171556 | 71 | 9 | 1.7 | 6.1 | 0.00 | 0.00 | 0.00 | 62 | 1011.1 |
| 20260503171057 | 71 | 5 | 0.9 | 6.1 | 0.00 | 0.00 | 0.00 | 64 | 1011.1 |
| 20260503170558 | 70 | 9 | 2.6 | 6.1 | 0.00 | 0.00 | 0.00 | 64 | 1011.2 |
| 20260503150557 | 59 | 5 | 1.7 | 4.3 | 0.00 | 0.00 | 0.00 | 88 | 1011.7 |
| 20260503150107 | 58 | 355 | 0.9 | 3.5 | 0.00 | 0.00 | 0.00 | 89 | 1011.6 |
| 20260503131053 | 54 | 0 | 0.0 | 0.9 | 0.00 | 0.00 | 0.00 | 94 | 1011.3 |
| 20260503130556 | 54 | 0 | 0.0 | 2.6 | 0.00 | 0.00 | 0.00 | 94 | 1011.3 |
| 20260503110557 | 55 | 0 | 0.0 | 0.9 | 0.00 | 0.00 | 0.00 | 94 | 1011.6 |
| 20260503100109 | 55 | 0 | 0.0 | 0.0 | 0.00 | 0.00 | 0.00 | 93 | 1011.7 |
| 20260503090106 | 56 | 0 | 0.0 | 0.9 | 0.00 | 0.00 | 0.00 | 91 | 1012.0 |
| 20260503081600 | 56 | 0 | 0.0 | 1.7 | 0.00 | 0.00 | 0.00 | 89 | 1012.1 |
| 20260503081057 | 57 | 302 | 0.0 | 1.7 | 0.00 | 0.00 | 0.00 | 89 | 1012.1 |
| 20260503080558 | 57 | 0 | 0.0 | 1.7 | 0.00 | 0.00 | 0.00 | 89 | 1012.1 |
| 20260503072555 | 58 | 0 | 0.0 | 0.0 | 0.00 | 0.00 | 0.00 | 87 | 1012.2 |
| 20260503072057 | 58 | 0 | 0.0 | 0.0 | 0.00 | 0.00 | 0.00 | 86 | 1012.1 |
| 20260503071611 | 58 | 0 | 0.0 | 0.0 | 0.00 | 0.00 | 0.00 | 86 | 1012.2 |
| 20260503071055 | 59 | 0 | 0.0 | 0.0 | 0.00 | 0.00 | 0.00 | 86 | 1012.2 |
| 20260503070556 | 58 | 0 | 0.0 | 0.0 | 0.00 | 0.00 | 0.00 | 86 | 1012.1 |
| 20260503070113 | 58 | 0 | 0.0 | 0.0 | 0.00 | 0.00 | 0.00 | 86 | 1012.2 |
| 20260503060114 | 59 | 0 | 0.0 | 2.6 | 0.00 | 0.00 | 0.00 | 84 | 1012.1 |
| 20260503055053 | 59 | 302 | 0.0 | 1.7 | 0.00 | 0.00 | 0.00 | 84 | 1012.2 |
| 20260503054559 | 60 | 0 | 0.0 | 0.9 | 0.00 | 0.00 | 0.00 | 83 | 1012.2 |
| 20260503054057 | 60 | 0 | 0.0 | 0.9 | 0.00 | 0.00 | 0.00 | 83 | 1012.1 |
| 20260503053554 | 60 | 0 | 0.0 | 0.9 | 0.00 | 0.00 | 0.00 | 82 | 1012.0 |
| 20260503053058 | 60 | 0 | 0.0 | 1.7 | 0.00 | 0.00 | 0.00 | 82 | 1012.0 |
| 20260503052553 | 61 | 0 | 0.0 | 1.7 | 0.00 | 0.00 | 0.00 | 81 | 1012.0 |
| 20260503052058 | 61 | 302 | 0.0 | 1.7 | 0.00 | 0.00 | 0.00 | 81 | 1012.0 |
| 20260503051555 | 61 | 0 | 0.0 | 1.7 | 0.00 | 0.00 | 0.00 | 80 | 1012.0 |
| 20260503051056 | 62 | 0 | 0.0 | 2.6 | 0.00 | 0.00 | 0.00 | 79 | 1011.9 |
| 20260503050558 | 62 | 302 | 0.9 | 2.6 | 0.00 | 0.00 | 0.00 | 80 | 1011.9 |
| 20260503045559 | 61 | 0 | 0.0 | 1.7 | 0.00 | 0.00 | 0.00 | 80 | 1012.0 |
| 20260503045057 | 61 | 0 | 0.0 | 2.6 | 0.00 | 0.00 | 0.00 | 81 | 1011.9 |
| 20260503044556 | 61 | 5 | 0.0 | 2.6 | 0.00 | 0.00 | 0.00 | 81 | 1012.0 |
| 20260503044055 | 61 | 0 | 0.9 | 2.6 | 0.00 | 0.00 | 0.00 | 80 | 1012.1 |
| 20260503043557 | 62 | 13 | 0.0 | 1.7 | 0.00 | 0.00 | 0.00 | 80 | 1012.2 |
| 20260503043058 | 62 | 0 | 0.0 | 2.6 | 0.00 | 0.00 | 0.00 | 80 | 1012.2 |
| 20260503042557 | 62 | 13 | 0.9 | 2.6 | 0.00 | 0.00 | 0.00 | 79 | 1012.2 |
| 20260503042057 | 62 | 13 | 0.9 | 2.6 | 0.00 | 0.00 | 0.00 | 78 | 1012.0 |
| 20260503041559 | 62 | 13 | 0.9 | 1.7 | 0.00 | 0.00 | 0.00 | 78 | 1012.0 |
| 20260503041058 | 62 | 0 | 0.0 | 1.7 | 0.00 | 0.00 | 0.00 | 78 | 1012.0 |
| 20260503040556 | 62 | 0 | 0.0 | 1.7 | 0.00 | 0.00 | 0.00 | 78 | 1011.9 |
| 20260503040057 | 63 | 13 | 0.0 | 2.6 | 0.00 | 0.00 | 0.00 | 77 | 1012.0 |
| 20260503035600 | 63 | 13 | 0.9 | 2.6 | 0.00 | 0.00 | 0.00 | 77 | 1012.0 |
| 20260503035101 | 63 | 0 | 0.9 | 2.6 | 0.00 | 0.00 | 0.00 | 77 | 1012.0 |
| 20260503034601 | 63 | 112 | 0.0 | 1.7 | 0.00 | 0.00 | 0.00 | 77 | 1012.0 |
| 20260503034056 | 63 | 112 | 0.0 | 1.7 | 0.00 | 0.00 | 0.00 | 77 | 1012.1 |
| 20260503033600 | 63 | 144 | 0.9 | 1.7 | 0.00 | 0.00 | 0.00 | 76 | 1012.1 |
| 20260503033101 | 63 | 0 | 0.0 | 1.7 | 0.00 | 0.00 | 0.00 | 76 | 1012.1 |
| 20260503032554 | 63 | 144 | 0.0 | 1.7 | 0.00 | 0.00 | 0.00 | 76 | 1012.0 |
| 20260503032057 | 63 | 0 | 0.0 | 2.6 | 0.00 | 0.00 | 0.00 | 76 | 1012.0 |
| 20260503031602 | 63 | 0 | 0.9 | 2.6 | 0.00 | 0.00 | 0.00 | 76 | 1011.9 |
| 20260503031056 | 64 | 63 | 0.9 | 2.6 | 0.00 | 0.00 | 0.00 | 76 | 1011.7 |
| 20260503030556 | 64 | 144 | 0.9 | 4.3 | 0.00 | 0.00 | 0.00 | 75 | 1011.7 |
| 20260503030057 | 64 | 0 | 0.0 | 4.3 | 0.00 | 0.00 | 0.00 | 75 | 1011.7 |
| 20260503025558 | 64 | 17 | 1.7 | 4.3 | 0.00 | 0.00 | 0.00 | 73 | 1011.6 |
| 20260503025102 | 64 | 317 | 0.0 | 2.6 | 0.00 | 0.00 | 0.00 | 74 | 1011.8 |
| 20260503024623 | 64 | 317 | 0.0 | 7.0 | 0.00 | 0.00 | 0.00 | 73 | 1011.7 |
| 20260503024057 | 64 | 299 | 0.9 | 10.4 | 0.00 | 0.00 | 0.00 | 72 | 1011.9 |
| 20260503023557 | 64 | 267 | 2.6 | 10.4 | 0.00 | 0.00 | 0.00 | 72 | 1011.8 |
| 20260503023059 | 64 | 169 | 0.9 | 6.1 | 0.00 | 0.00 | 0.00 | 73 | 1012.0 |
| 20260503022557 | 64 | 221 | 1.7 | 9.6 | 0.00 | 0.00 | 0.00 | 74 | 1012.0 |
| 20260503022058 | 64 | 263 | 1.7 | 13.0 | 0.00 | 0.00 | 0.00 | 73 | 1012.1 |
| 20260503021605 | 64 | 150 | 1.7 | 13.0 | 0.00 | 0.00 | 0.00 | 73 | 1012.1 |
| 20260503021057 | 65 | 201 | 2.6 | 17.4 | 0.00 | 0.00 | 0.00 | 72 | 1012.1 |
| 20260503020557 | 65 | 228 | 1.7 | 17.4 | 0.00 | 0.00 | 0.00 | 72 | 1012.2 |
| 20260503020104 | 65 | 160 | 7.0 | 16.5 | 0.00 | 0.00 | 0.00 | 71 | 1012.1 |
| 20260503015557 | 67 | 182 | 4.3 | 13.9 | 0.00 | 0.00 | 0.00 | 70 | 1012.2 |
| 20260503015100 | 67 | 177 | 4.3 | 10.4 | 0.00 | 0.00 | 0.00 | 69 | 1011.8 |
| 20260503014627 | 69 | 169 | 0.9 | 4.3 | 0.00 | 0.00 | 0.00 | 66 | 1011.4 |
| 20260503014058 | 69 | 182 | 0.9 | 4.3 | 0.00 | 0.00 | 0.00 | 65 | 1011.4 |
| 20260503013554 | 69 | 216 | 1.7 | 4.3 | 0.00 | 0.00 | 0.00 | 64 | 1011.3 |
| 20260503013058 | 70 | 245 | 0.0 | 4.3 | 0.00 | 0.00 | 0.00 | 63 | 1011.2 |
| 20260503012557 | 70 | 224 | 0.9 | 4.3 | 0.00 | 0.00 | 0.00 | 62 | 1011.2 |
| 20260503012056 | 70 | 189 | 0.9 | 4.3 | 0.00 | 0.00 | 0.00 | 61 | 1011.2 |
| 20260503011625 | 70 | 213 | 1.7 | 3.5 | 0.00 | 0.00 | 0.00 | 62 | 1011.2 |
| 20260503011100 | 70 | 234 | 0.9 | 3.5 | 0.00 | 0.00 | 0.00 | 61 | 1011.1 |
| 20260503010557 | 70 | 216 | 1.7 | 3.5 | 0.00 | 0.00 | 0.00 | 61 | 1011.2 |
| 20260503010057 | 71 | 200 | 0.9 | 3.5 | 0.00 | 0.00 | 0.00 | 59 | 1011.1 |
| 20260503005559 | 72 | 276 | 0.0 | 3.5 | 0.00 | 0.00 | 0.00 | 57 | 1011.1 |
| 20260503005058 | 72 | 300 | 0.9 | 6.1 | 0.00 | 0.00 | 0.00 | 58 | 1011.1 |
| 20260503004556 | 72 | 0 | 0.9 | 6.1 | 0.00 | 0.00 | 0.00 | 59 | 1011.1 |
| 20260503004058 | 72 | 352 | 0.0 | 3.5 | 0.00 | 0.00 | 0.00 | 57 | 1011.1 |
| 20260503003553 | 72 | 352 | 0.0 | 3.5 | 0.00 | 0.00 | 0.00 | 57 | 1011.2 |
| 20260503003101 | 72 | 60 | 0.9 | 3.5 | 0.00 | 0.00 | 0.00 | 56 | 1011.1 |
| 20260503002556 | 72 | 0 | 0.9 | 3.5 | 0.00 | 0.00 | 0.00 | 57 | 1011.1 |
| 20260503002053 | 72 | 0 | 0.9 | 6.1 | 0.00 | 0.00 | 0.00 | 56 | 1011.0 |
| 20260503001620 | 72 | 281 | 0.9 | 6.1 | 0.00 | 0.00 | 0.00 | 58 | 1011.0 |
| 20260503001057 | 72 | 282 | 1.7 | 5.2 | 0.00 | 0.00 | 0.00 | 57 | 1011.0 |
| 20260503000557 | 71 | 77 | 0.9 | 4.3 | 0.00 | 0.00 | 0.00 | 57 | 1011.1 |
| 20260503000121 | 71 | 360 | 1.7 | 4.3 | 0.00 | 0.00 | 0.00 | 58 | 1011.2 |
| 20260502235557 | 71 | 360 | 0.9 | 4.3 | 0.00 | 0.00 | 0.00 | 57 | 1011.2 |
| 20260502235054 | 71 | 298 | 0.9 | 5.2 | 0.00 | 0.00 | 0.00 | 58 | 1011.3 |
| 20260502234618 | 72 | 313 | 1.7 | 5.2 | 0.00 | 0.00 | 0.00 | 58 | 1011.3 |
| 20260502234057 | 71 | 67 | 0.9 | 3.5 | 0.00 | 0.00 | 0.00 | 60 | 1011.4 |
| 20260502233556 | 71 | 255 | 0.9 | 4.3 | 0.00 | 0.00 | 0.00 | 56 | 1011.4 |
| 20260502233058 | 71 | 352 | 0.9 | 4.3 | 0.00 | 0.00 | 0.00 | 58 | 1011.5 |
| 20260502232557 | 71 | 55 | 1.7 | 4.3 | 0.00 | 0.00 | 0.00 | 59 | 1011.5 |
| 20260502232056 | 71 | 325 | 0.9 | 4.3 | 0.00 | 0.00 | 0.00 | 58 | 1011.6 |
| 20260502231557 | 71 | 82 | 0.9 | 5.2 | 0.00 | 0.00 | 0.00 | 57 | 1011.7 |
| 20260502231100 | 71 | 248 | 0.0 | 5.2 | 0.00 | 0.00 | 0.00 | 58 | 1011.7 |
| 20260502230557 | 70 | 13 | 1.7 | 5.2 | 0.00 | 0.00 | 0.00 | 60 | 1011.7 |
| 20260502230100 | 70 | 76 | 1.7 | 5.2 | 0.00 | 0.00 | 0.00 | 59 | 1011.7 |
| 20260502225553 | 70 | 340 | 0.9 | 3.5 | 0.00 | 0.00 | 0.00 | 60 | 1011.7 |
| 20260502225057 | 69 | 38 | 0.0 | 3.5 | 0.00 | 0.00 | 0.00 | 62 | 1011.8 |
| 20260502224555 | 68 | 297 | 0.0 | 3.5 | 0.00 | 0.00 | 0.00 | 62 | 1011.8 |
| 20260502224057 | 67 | 302 | 1.7 | 3.5 | 0.00 | 0.00 | 0.00 | 63 | 1011.9 |
| 20260502223557 | 68 | 314 | 0.9 | 5.2 | 0.00 | 0.00 | 0.00 | 62 | 1012.0 |
| 20260502223103 | 69 | 318 | 0.9 | 5.2 | 0.00 | 0.00 | 0.00 | 62 | 1012.2 |
| 20260502222557 | 68 | 9 | 1.7 | 5.2 | 0.00 | 0.00 | 0.00 | 62 | 1012.3 |
| 20260502222058 | 68 | 194 | 1.7 | 5.2 | 0.00 | 0.00 | 0.00 | 62 | 1012.3 |
| 20260502221555 | 67 | 292 | 1.7 | 6.1 | 0.00 | 0.00 | 0.00 | 63 | 1012.4 |
| 20260502221054 | 67 | 0 | 1.7 | 6.1 | 0.00 | 0.00 | 0.00 | 63 | 1012.5 |
| 20260502220557 | 68 | 304 | 1.7 | 4.3 | 0.00 | 0.00 | 0.00 | 63 | 1012.5 |
| 20260502215559 | 69 | 0 | 0.9 | 7.0 | 0.00 | 0.00 | 0.00 | 62 | 1012.7 |
| 20260502215058 | 67 | 279 | 2.6 | 7.0 | 0.00 | 0.00 | 0.00 | 61 | 1012.8 |
| 20260502214556 | 67 | 82 | 2.6 | 6.1 | 0.00 | 0.00 | 0.00 | 63 | 1012.8 |
| 20260502214057 | 66 | 271 | 1.7 | 6.1 | 0.00 | 0.00 | 0.00 | 64 | 1012.9 |
| 20260502213554 | 66 | 18 | 2.6 | 6.1 | 0.00 | 0.00 | 0.00 | 63 | 1013.0 |
| 20260502213100 | 66 | 308 | 1.7 | 5.2 | 0.00 | 0.00 | 0.00 | 66 | 1013.1 |
| 20260502212601 | 65 | 311 | 1.7 | 7.0 | 0.00 | 0.00 | 0.00 | 66 | 1013.2 |
| 20260502212057 | 64 | 0 | 1.7 | 7.0 | 0.00 | 0.00 | 0.00 | 66 | 1013.3 |
| 20260502211558 | 65 | 44 | 1.7 | 7.0 | 0.00 | 0.00 | 0.00 | 65 | 1013.3 |
| 20260502211053 | 64 | 224 | 0.9 | 5.2 | 0.00 | 0.00 | 0.00 | 67 | 1013.3 |
| 20260502210554 | 64 | 80 | 1.7 | 7.0 | 0.00 | 0.00 | 0.00 | 67 | 1013.3 |
| 20260502210056 | 63 | 78 | 2.6 | 7.0 | 0.00 | 0.00 | 0.00 | 68 | 1013.3 |
| 20260502205558 | 65 | 43 | 1.7 | 5.2 | 0.00 | 0.00 | 0.00 | 66 | 1013.4 |
| 20260502205055 | 65 | 40 | 2.6 | 6.1 | 0.00 | 0.00 | 0.00 | 66 | 1013.6 |
| 20260502204603 | 65 | 90 | 1.7 | 7.8 | 0.00 | 0.00 | 0.00 | 68 | 1013.7 |
| 20260502204055 | 63 | 82 | 2.6 | 7.8 | 0.00 | 0.00 | 0.00 | 67 | 1013.9 |
| 20260502203554 | 64 | 13 | 2.6 | 4.3 | 0.00 | 0.00 | 0.00 | 67 | 1014.1 |
| 20260502203118 | 63 | 36 | 0.9 | 4.3 | 0.00 | 0.00 | 0.00 | 69 | 1014.0 |
| 20260502202554 | 63 | 93 | 0.9 | 3.5 | 0.00 | 0.00 | 0.00 | 71 | 1014.0 |
| 20260502202058 | 61 | 155 | 0.9 | 7.0 | 0.00 | 0.00 | 0.00 | 70 | 1014.1 |
| 20260502201616 | 62 | 278 | 2.6 | 7.0 | 0.00 | 0.00 | 0.00 | 71 | 1014.2 |
| 20260502201056 | 60 | 5 | 0.9 | 4.3 | 0.00 | 0.00 | 0.00 | 71 | 1014.2 |
| 20260502200557 | 60 | 0 | 0.9 | 4.3 | 0.00 | 0.00 | 0.00 | 73 | 1014.3 |
| 20260502200101 | 61 | 305 | 1.7 | 4.3 | 0.00 | 0.00 | 0.00 | 71 | 1014.2 |
| 20260502195559 | 59 | 273 | 0.9 | 5.2 | 0.00 | 0.00 | 0.00 | 74 | 1014.3 |
| 20260502195054 | 60 | 219 | 0.9 | 5.2 | 0.00 | 0.00 | 0.00 | 73 | 1014.4 |
| 20260502194601 | 60 | 257 | 0.9 | 4.3 | 0.00 | 0.00 | 0.00 | 72 | 1014.4 |
| 20260502194054 | 61 | 11 | 1.7 | 4.3 | 0.00 | 0.00 | 0.00 | 73 | 1014.4 |
| 20260502193557 | 61 | 79 | 0.0 | 8.7 | 0.00 | 0.00 | 0.00 | 73 | 1014.5 |
| 20260502193113 | 60 | 0 | 0.9 | 8.7 | 0.00 | 0.00 | 0.00 | 73 | 1014.4 |
| 20260502192557 | 60 | 19 | 1.7 | 4.3 | 0.00 | 0.00 | 0.00 | 72 | 1014.5 |
| 20260502192057 | 60 | 334 | 0.9 | 6.1 | 0.00 | 0.00 | 0.00 | 74 | 1014.4 |
| 20260502191556 | 58 | 352 | 0.9 | 7.8 | 0.00 | 0.00 | 0.00 | 76 | 1014.6 |
| 20260502191054 | 57 | 271 | 2.6 | 7.8 | 0.00 | 0.00 | 0.00 | 77 | 1014.9 |
| 20260502190554 | 58 | 302 | 0.9 | 4.3 | 0.00 | 0.00 | 0.00 | 77 | 1014.9 |
| 20260502190057 | 57 | 0 | 0.0 | 5.2 | 0.00 | 0.00 | 0.00 | 78 | 1015.0 |
| 20260502185557 | 57 | 46 | 0.9 | 5.2 | 0.00 | 0.00 | 0.00 | 78 | 1015.1 |
| 20260502185054 | 56 | 30 | 1.7 | 5.2 | 0.00 | 0.00 | 0.00 | 77 | 1015.1 |
| 20260502184603 | 56 | 317 | 1.7 | 5.2 | 0.00 | 0.00 | 0.00 | 78 | 1015.2 |
| 20260502184054 | 57 | 283 | 0.9 | 3.5 | 0.00 | 0.00 | 0.00 | 79 | 1015.0 |
| 20260502183554 | 56 | 323 | 0.9 | 3.5 | 0.00 | 0.00 | 0.00 | 78 | 1014.9 |
| 20260502183107 | 57 | 0 | 0.9 | 3.5 | 0.00 | 0.00 | 0.00 | 78 | 1014.8 |
| 20260502182553 | 56 | 0 | 0.0 | 4.3 | 0.00 | 0.00 | 0.00 | 81 | 1014.8 |
| 20260502182056 | 55 | 303 | 0.9 | 4.3 | 0.00 | 0.00 | 0.00 | 81 | 1014.9 |
| 20260502181611 | 56 | 5 | 0.9 | 4.3 | 0.00 | 0.00 | 0.00 | 80 | 1015.1 |